Time;durP1;ratioP1;P1;durP2;ratioP2;P2;SDS_P1;SDS_P2;PMS_P1;PMS_P2;Temp;Humidity;BMP_temperature;BMP_pressure;BME280_temperature;BME280_humidity;BME280_pressure;Samples;Min_cycle;Max_cycle;Signal;HPM_P1;HPM_P2
2023/10/09 00:01:09;;;;;;;20.37;7.50;;;17.50;99.90;;;;;;5001040;28;20485;-68
2023/10/09 00:03:36;;;;;;;14.50;6.20;;;17.50;99.90;;;;;;5003917;28;20462;-69
2023/10/09 00:06:04;;;;;;;17.37;5.80;;;17.40;99.90;;;;;;5003890;28;20440;-69
2023/10/09 00:08:32;;;;;;;20.83;6.47;;;17.50;99.90;;;;;;5000445;28;20534;-69
2023/10/09 00:11:13;;;;;;;21.20;7.40;;;17.50;99.90;;;;;;4997819;28;20460;-68
2023/10/09 00:13:48;;;;;;;21.37;7.00;;;17.40;99.90;;;;;;5002882;28;20825;-68
2023/10/09 00:16:23;;;;;;;16.50;6.60;;;17.40;99.90;;;;;;4999978;28;20427;-68
2023/10/09 00:18:53;;;;;;;13.57;6.00;;;17.40;99.90;;;;;;5001739;28;20446;-69
2023/10/09 00:21:20;;;;;;;19.93;6.37;;;17.40;99.90;;;;;;5002411;28;20431;-68
2023/10/09 00:23:55;;;;;;;20.33;6.50;;;17.40;99.90;;;;;;5004589;28;20468;-69
2023/10/09 00:26:21;;;;;;;14.90;6.60;;;17.40;99.90;;;;;;4997424;28;20427;-68
2023/10/09 00:28:47;;;;;;;19.30;7.60;;;17.50;99.90;;;;;;4998152;28;20439;-68
2023/10/09 00:31:26;;;;;;;16.73;6.47;;;17.40;99.90;;;;;;4997336;28;20476;-69
2023/10/09 00:33:52;;;;;;;23.27;8.40;;;17.40;99.90;;;;;;4996905;28;20193;-69
2023/10/09 00:36:27;;;;;;;19.70;7.50;;;17.50;99.90;;;;;;4997811;28;20503;-69
2023/10/09 00:38:53;;;;;;;16.60;6.70;;;17.50;99.90;;;;;;5001982;28;20550;-69
2023/10/09 00:41:24;;;;;;;22.67;7.60;;;17.50;99.90;;;;;;5002894;28;20482;-69
2023/10/09 00:43:51;;;;;;;21.60;8.07;;;17.60;99.90;;;;;;5000326;28;20510;-69
2023/10/09 00:48:53;;;;;;;20.17;7.20;;;17.50;99.90;;;;;;4999026;28;21024;-69
2023/10/09 00:51:21;;;;;;;17.83;7.80;;;17.60;99.90;;;;;;5002032;28;21047;-69
2023/10/09 00:54:06;;;;;;;16.47;6.63;;;17.60;99.90;;;;;;5001107;28;20562;-69
2023/10/09 00:56:39;;;;;;;13.23;6.77;;;17.60;99.90;;;;;;5001738;28;20424;-69
2023/10/09 00:59:09;;;;;;;17.70;6.23;;;17.60;99.90;;;;;;4994537;28;20537;-68
2023/10/09 01:01:41;;;;;;;15.80;7.97;;;17.50;99.90;;;;;;5000879;28;20530;-69
2023/10/09 01:04:19;;;;;;;19.60;6.73;;;17.60;99.90;;;;;;4997577;28;20544;-68
2023/10/09 01:07:04;;;;;;;33.43;9.60;;;17.60;99.90;;;;;;4997772;28;20499;-69
2023/10/09 01:09:29;;;;;;;20.97;7.43;;;17.60;99.90;;;;;;5000682;28;20522;-68
2023/10/09 01:14:26;;;;;;;17.30;8.13;;;17.50;99.90;;;;;;4995749;28;20209;-68
2023/10/09 01:16:54;;;;;;;16.97;7.03;;;17.50;99.90;;;;;;5002660;28;20992;-68
2023/10/09 01:19:23;;;;;;;20.43;6.83;;;17.50;99.90;;;;;;4993532;28;20267;-69
2023/10/09 01:21:50;;;;;;;21.80;6.73;;;17.40;99.90;;;;;;4995705;28;20519;-69
2023/10/09 01:24:16;;;;;;;14.80;6.90;;;17.40;99.90;;;;;;5002803;28;20452;-68
2023/10/09 01:26:46;;;;;;;17.57;7.17;;;17.40;99.90;;;;;;4994808;28;20575;-68
2023/10/09 01:29:17;;;;;;;23.13;7.73;;;17.30;99.90;;;;;;5001637;28;20482;-69
2023/10/09 01:31:56;;;;;;;22.03;7.20;;;17.30;99.90;;;;;;4996603;28;20463;-68
2023/10/09 01:37:06;;;;;;;14.93;7.33;;;17.30;99.90;;;;;;4996096;28;20470;-68
2023/10/09 01:39:39;;;;;;;17.63;6.57;;;17.30;99.90;;;;;;5000432;28;20454;-68
2023/10/09 01:42:05;;;;;;;25.77;7.93;;;17.20;99.90;;;;;;5001259;28;20452;-69
2023/10/09 01:44:35;;;;;;;20.20;7.40;;;17.30;99.90;;;;;;4997343;28;20490;-69
2023/10/09 01:47:07;;;;;;;18.17;6.93;;;17.20;99.90;;;;;;4994229;28;20447;-69
2023/10/09 01:49:41;;;;;;;21.20;7.63;;;17.10;99.90;;;;;;4997288;28;20551;-69
2023/10/09 01:52:15;;;;;;;15.50;7.20;;;17.10;99.90;;;;;;5000610;28;20920;-69
2023/10/09 01:54:41;;;;;;;17.23;6.87;;;17.10;99.90;;;;;;4999119;28;20432;-68
2023/10/09 01:57:13;;;;;;;21.50;7.87;;;17.10;99.90;;;;;;4999263;28;20428;-68
2023/10/09 01:59:56;;;;;;;21.73;7.60;;;17.10;99.90;;;;;;5000260;28;20494;-69
2023/10/09 02:02:33;;;;;;;14.70;6.83;;;17.10;99.90;;;;;;4998553;28;20541;-69
2023/10/09 02:07:58;;;;;;;19.30;6.83;;;17.00;99.90;;;;;;5002644;28;20506;-69
2023/10/09 02:12:53;;;;;;;24.00;6.70;;;17.00;99.90;;;;;;4996983;28;20479;-69
2023/10/09 02:15:40;;;;;;;24.33;7.60;;;16.90;99.90;;;;;;4997389;28;20454;-69
2023/10/09 02:18:16;;;;;;;21.67;8.83;;;16.90;99.90;;;;;;5000858;28;20974;-68
2023/10/09 02:20:45;;;;;;;15.07;7.20;;;16.90;99.90;;;;;;5002343;28;20473;-69
2023/10/09 02:23:13;;;;;;;23.07;8.47;;;16.80;99.90;;;;;;5000374;28;20455;-69
2023/10/09 02:25:43;;;;;;;16.90;7.40;;;16.80;99.90;;;;;;4998111;28;20456;-69
2023/10/09 02:28:09;;;;;;;20.97;7.10;;;16.80;99.90;;;;;;4999189;28;20445;-69
2023/10/09 02:30:34;;;;;;;14.23;6.63;;;16.80;99.90;;;;;;4994963;28;20467;-69
2023/10/09 02:33:08;;;;;;;14.20;7.43;;;16.70;99.90;;;;;;5000180;28;20484;-69
2023/10/09 02:35:38;;;;;;;17.03;6.50;;;16.80;99.90;;;;;;4997475;28;20178;-69
2023/10/09 02:38:07;;;;;;;16.03;6.30;;;16.80;99.90;;;;;;4997022;28;20428;-69
2023/10/09 02:40:41;;;;;;;17.17;6.47;;;16.80;99.90;;;;;;4994968;28;20523;-69
2023/10/09 02:43:17;;;;;;;12.57;6.73;;;16.80;99.90;;;;;;4997541;28;20802;-68
2023/10/09 02:45:50;;;;;;;16.93;6.97;;;16.70;99.90;;;;;;4997498;28;20894;-68
2023/10/09 02:48:20;;;;;;;15.10;6.20;;;16.70;99.90;;;;;;4997241;28;20427;-68
2023/10/09 02:50:46;;;;;;;21.23;7.07;;;16.70;99.90;;;;;;4996432;28;21012;-69
2023/10/09 02:53:18;;;;;;;15.63;7.03;;;16.70;99.90;;;;;;4998040;28;20452;-69
2023/10/09 02:56:00;;;;;;;19.73;6.50;;;16.60;99.90;;;;;;4997557;28;20764;-69
2023/10/09 02:58:27;;;;;;;19.67;6.13;;;16.60;99.90;;;;;;4997499;28;20428;-69
2023/10/09 03:00:53;;;;;;;19.30;6.33;;;16.70;99.90;;;;;;5001351;28;20464;-69
2023/10/09 03:03:20;;;;;;;25.70;6.83;;;16.80;99.90;;;;;;4997796;28;20488;-69
2023/10/09 03:05:46;;;;;;;16.60;6.37;;;16.70;99.90;;;;;;4997557;28;20173;-69
2023/10/09 03:08:16;;;;;;;17.23;6.00;;;16.60;99.90;;;;;;4994312;28;20475;-69
2023/10/09 03:10:42;;;;;;;18.97;7.23;;;16.70;99.90;;;;;;4998891;28;20200;-69
2023/10/09 03:13:07;;;;;;;18.57;7.07;;;16.60;99.90;;;;;;4992369;28;21048;-69
2023/10/09 03:15:36;;;;;;;12.47;6.60;;;16.60;99.90;;;;;;4997513;28;20236;-69
2023/10/09 03:18:04;;;;;;;15.47;6.83;;;16.80;99.90;;;;;;4994327;28;20226;-69
2023/10/09 03:20:30;;;;;;;16.07;6.70;;;16.80;99.90;;;;;;4999140;28;20439;-69
2023/10/09 03:22:57;;;;;;;15.63;7.20;;;16.80;99.90;;;;;;5001130;28;20550;-69
2023/10/09 03:25:25;;;;;;;14.80;6.47;;;16.70;99.90;;;;;;4998058;28;20456;-69
2023/10/09 03:27:52;;;;;;;13.03;6.20;;;16.80;99.90;;;;;;4995931;28;20515;-69
2023/10/09 03:30:24;;;;;;;13.60;5.97;;;16.70;99.90;;;;;;4999938;28;20503;-69
2023/10/09 03:32:53;;;;;;;20.10;6.80;;;16.80;99.90;;;;;;4998284;28;21088;-69
2023/10/09 03:35:27;;;;;;;24.00;7.50;;;16.70;99.90;;;;;;4995498;28;20432;-69
2023/10/09 03:38:18;;;;;;;13.10;7.70;;;16.70;99.90;;;;;;4998850;28;21244;-68
2023/10/09 03:40:47;;;;;;;17.33;6.93;;;16.70;99.90;;;;;;4999505;28;20463;-68
2023/10/09 03:43:14;;;;;;;20.53;7.67;;;16.80;99.90;;;;;;5001437;28;20487;-69
2023/10/09 03:45:52;;;;;;;17.97;6.03;;;16.80;99.90;;;;;;4997066;28;20821;-68
2023/10/09 03:48:32;;;;;;;17.30;6.47;;;16.90;99.90;;;;;;4997463;28;20503;-68
2023/10/09 03:51:11;;;;;;;15.50;7.13;;;16.80;99.90;;;;;;4998398;28;20563;-68
2023/10/09 03:53:39;;;;;;;22.87;7.63;;;16.80;99.90;;;;;;4997588;28;20455;-69
2023/10/09 03:56:11;;;;;;;14.70;6.30;;;16.80;99.90;;;;;;4996814;28;20461;-69
2023/10/09 03:58:42;;;;;;;23.73;8.90;;;16.80;99.90;;;;;;4996171;28;20444;-69
2023/10/09 04:01:29;;;;;;;17.87;8.70;;;16.70;99.90;;;;;;5006588;28;20489;-69
2023/10/09 04:03:59;;;;;;;16.90;6.77;;;16.70;99.90;;;;;;4995009;28;21343;-69
2023/10/09 04:06:32;;;;;;;20.67;7.93;;;16.70;99.90;;;;;;4996327;28;20440;-69
2023/10/09 04:11:44;;;;;;;14.90;7.53;;;16.60;99.90;;;;;;5001832;28;20558;-69
2023/10/09 04:14:24;;;;;;;14.53;6.50;;;16.50;99.90;;;;;;4996182;28;20501;-69
2023/10/09 04:17:04;;;;;;;17.70;7.00;;;16.50;99.90;;;;;;4991420;28;20464;-69
2023/10/09 04:19:38;;;;;;;14.83;6.80;;;16.60;99.90;;;;;;4996967;28;20449;-66
2023/10/09 04:22:09;;;;;;;17.30;6.73;;;16.50;99.90;;;;;;4997184;28;20463;-68
2023/10/09 04:24:44;;;;;;;14.10;7.67;;;16.40;99.90;;;;;;4995629;28;20895;-68
2023/10/09 04:27:10;;;;;;;13.10;5.83;;;16.40;99.90;;;;;;4991253;28;20471;-68
2023/10/09 04:29:38;;;;;;;13.93;6.33;;;16.40;99.90;;;;;;4995831;28;20887;-68
2023/10/09 04:32:07;;;;;;;18.03;7.70;;;16.40;99.90;;;;;;4996830;28;20212;-68
2023/10/09 04:34:46;;;;;;;18.07;7.13;;;16.40;99.90;;;;;;4995044;28;20461;-68
2023/10/09 04:39:46;;;;;;;17.43;7.60;;;16.30;99.90;;;;;;5002936;28;20444;-69
2023/10/09 04:45:18;;;;;;;12.43;6.40;;;16.30;99.90;;;;;;5001784;28;20493;-67
2023/10/09 04:47:57;;;;;;;25.40;7.20;;;16.20;99.90;;;;;;4997210;28;20510;-68
2023/10/09 04:53:22;;;;;;;23.03;7.30;;;16.20;99.90;;;;;;4997492;28;20471;-68
2023/10/09 04:55:55;;;;;;;16.10;6.33;;;16.20;99.90;;;;;;5001831;28;20487;-68
2023/10/09 04:58:25;;;;;;;21.13;7.13;;;16.30;99.90;;;;;;5002664;28;20415;-68
2023/10/09 05:03:42;;;;;;;15.97;6.70;;;16.20;99.90;;;;;;5000257;28;20474;-69
2023/10/09 05:06:21;;;;;;;19.90;8.13;;;16.10;99.90;;;;;;4998869;28;21011;-69
2023/10/09 05:08:54;;;;;;;15.63;7.57;;;16.10;99.90;;;;;;5002790;28;20969;-69
2023/10/09 05:11:34;;;;;;;11.23;6.00;;;16.10;99.90;;;;;;5005146;28;20464;-69
2023/10/09 05:14:13;;;;;;;16.63;5.70;;;16.20;99.90;;;;;;5000643;28;20436;-69
2023/10/09 05:16:54;;;;;;;16.43;6.20;;;16.00;99.90;;;;;;5001191;28;20937;-69
2023/10/09 05:19:41;;;;;;;19.37;7.43;;;16.00;99.90;;;;;;5002122;28;20432;-69
2023/10/09 05:25:16;;;;;;;17.63;6.93;;;16.00;99.90;;;;;;5010067;28;20946;-69
2023/10/09 05:27:50;;;;;;;20.40;6.60;;;16.00;99.90;;;;;;4996100;28;20432;-69
2023/10/09 05:30:25;;;;;;;23.40;6.90;;;16.00;99.90;;;;;;4991466;28;20431;-68
2023/10/09 05:32:55;;;;;;;13.97;6.50;;;16.00;99.90;;;;;;4991651;28;20545;-68
2023/10/09 05:35:39;;;;;;;23.83;6.50;;;16.00;99.90;;;;;;5013183;28;20463;-68
2023/10/09 05:38:14;;;;;;;18.50;7.00;;;16.00;99.90;;;;;;4997769;28;20425;-68
2023/10/09 05:40:43;;;;;;;14.17;6.70;;;16.00;99.90;;;;;;4995328;28;20458;-69
2023/10/09 05:44:16;;;;;;;16.97;7.03;;;16.00;99.90;;;;;;4997858;28;20470;-69
2023/10/09 05:46:14;;;;;;;19.23;7.13;;;16.00;99.90;;;;;;5004551;28;20800;-69
2023/10/09 06:04:33;;;;;;;21.23;6.83;;;16.20;99.90;;;;;;4998492;28;20431;-69
2023/10/09 06:07:00;;;;;;;20.13;5.93;;;16.20;99.90;;;;;;4997374;28;20459;-69
2023/10/09 06:09:49;;;;;;;16.93;5.77;;;16.10;99.90;;;;;;5001982;28;20439;-69
2023/10/09 06:12:33;;;;;;;17.50;6.93;;;16.20;99.90;;;;;;4998103;28;20475;-69
2023/10/09 06:15:18;;;;;;;13.97;5.90;;;16.30;99.90;;;;;;4997916;28;20435;-69
2023/10/09 06:17:50;;;;;;;21.13;6.23;;;16.30;99.90;;;;;;4998529;28;20523;-69
2023/10/09 06:23:15;;;;;;;14.77;5.77;;;16.40;99.90;;;;;;4998240;28;20915;-69
2023/10/09 06:25:51;;;;;;;11.90;6.97;;;16.50;99.90;;;;;;5000959;28;20515;-69
2023/10/09 06:28:32;;;;;;;14.53;5.90;;;16.40;99.90;;;;;;5000465;28;20842;-69
2023/10/09 06:31:27;;;;;;;11.03;5.33;;;16.40;99.90;;;;;;4997310;28;20510;-69
2023/10/09 06:34:07;;;;;;;16.63;6.47;;;16.50;99.90;;;;;;4990527;28;20500;-68
2023/10/09 06:36:31;;;;;;;23.70;7.73;;;16.60;99.90;;;;;;4999583;28;21032;-69
2023/10/09 06:41:45;;;;;;;19.57;6.50;;;16.50;99.90;;;;;;4991933;28;20499;-68
2023/10/09 06:44:51;;;;;;;11.73;5.60;;;16.50;99.90;;;;;;4993675;28;20443;-69
2023/10/09 06:46:58;;;;;;;28.60;8.40;;;16.40;99.90;;;;;;4997643;28;20424;-69
2023/10/09 06:49:33;;;;;;;19.30;5.90;;;16.40;99.90;;;;;;4997098;28;20431;-69
2023/10/09 06:52:15;;;;;;;19.13;7.47;;;16.40;99.90;;;;;;4989710;28;20550;-69
2023/10/09 06:54:49;;;;;;;13.20;6.07;;;16.50;99.90;;;;;;4992742;28;20409;-69
2023/10/09 06:57:30;;;;;;;12.20;5.47;;;16.50;99.90;;;;;;4999301;28;20763;-69
2023/10/09 07:02:45;;;;;;;17.00;6.03;;;16.70;99.90;;;;;;4988212;28;21199;-70
2023/10/09 07:05:17;;;;;;;15.40;5.80;;;16.70;99.90;;;;;;4996312;28;20424;-69
2023/10/09 07:07:54;;;;;;;15.50;6.60;;;16.80;99.90;;;;;;4998462;28;20447;-69
2023/10/09 07:10:29;;;;;;;16.57;6.17;;;16.90;99.90;;;;;;4997914;28;20561;-69
2023/10/09 07:12:57;;;;;;;24.67;6.90;;;17.00;99.90;;;;;;4995786;28;20560;-69
2023/10/09 07:18:19;;;;;;;16.60;6.60;;;17.00;99.90;;;;;;4994292;28;20419;-69
2023/10/09 07:20:58;;;;;;;18.43;6.43;;;17.20;99.90;;;;;;4997919;28;20430;-69
2023/10/09 07:23:28;;;;;;;15.20;5.53;;;17.20;99.90;;;;;;5001330;28;21266;-69
2023/10/09 07:26:17;;;;;;;13.87;6.27;;;17.20;99.90;;;;;;5000989;28;20489;-69
2023/10/09 07:28:43;;;;;;;13.63;5.97;;;17.30;99.90;;;;;;5002820;28;20570;-69
2023/10/09 07:31:23;;;;;;;21.30;6.20;;;17.30;99.90;;;;;;4999235;28;20592;-69
2023/10/09 07:33:59;;;;;;;16.90;6.40;;;17.30;99.90;;;;;;4994189;28;20726;-68
2023/10/09 07:36:34;;;;;;;20.97;6.33;;;17.40;99.90;;;;;;4996972;28;20452;-68
2023/10/09 07:39:01;;;;;;;20.97;7.40;;;17.50;99.90;;;;;;4992965;28;20435;-68
2023/10/09 07:43:57;;;;;;;16.70;6.57;;;17.40;99.90;;;;;;4995266;28;20460;-70
2023/10/09 07:49:12;;;;;;;18.27;6.13;;;17.50;99.90;;;;;;4992555;28;20805;-68
2023/10/09 07:51:38;;;;;;;17.03;6.53;;;17.60;99.90;;;;;;4997112;28;20486;-68
2023/10/09 07:54:07;;;;;;;18.67;5.87;;;17.60;99.90;;;;;;4997013;28;20927;-68
2023/10/09 07:56:41;;;;;;;13.63;6.07;;;17.70;99.90;;;;;;4996934;28;20998;-69
2023/10/09 07:59:12;;;;;;;18.50;6.83;;;17.70;99.90;;;;;;5013236;28;20443;-69
2023/10/09 08:01:54;;;;;;;14.80;6.10;;;17.80;99.90;;;;;;5012454;28;21139;-69
2023/10/09 08:04:37;;;;;;;20.43;5.90;;;17.80;99.90;;;;;;4998793;28;20499;-68
2023/10/09 08:07:07;;;;;;;17.60;5.23;;;17.80;99.90;;;;;;4990381;28;20607;-68
2023/10/09 08:09:46;;;;;;;14.13;5.97;;;17.90;99.90;;;;;;4994663;28;20443;-68
2023/10/09 08:12:15;;;;;;;13.97;5.37;;;18.10;99.90;;;;;;5000847;28;20482;-68
2023/10/09 08:14:45;;;;;;;13.87;6.30;;;18.10;99.90;;;;;;5017252;28;20848;-68
2023/10/09 08:17:15;;;;;;;12.83;6.10;;;18.20;99.90;;;;;;5001123;28;20447;-68
2023/10/09 08:19:56;;;;;;;16.30;5.90;;;18.30;99.90;;;;;;5003531;28;20937;-68
2023/10/09 08:24:56;;;;;;;14.23;5.87;;;18.40;99.90;;;;;;5000803;28;20448;-68
2023/10/09 08:33:00;;;;;;;12.10;6.00;;;18.60;99.90;;;;;;5006578;28;20463;-68
2023/10/09 08:35:30;;;;;;;10.97;5.80;;;18.70;99.90;;;;;;4999995;28;20430;-68
2023/10/09 08:38:00;;;;;;;15.00;5.80;;;18.70;99.90;;;;;;5001810;28;20416;-68
2023/10/09 08:40:33;;;;;;;26.47;8.40;;;18.80;99.90;;;;;;5005782;28;20423;-68
2023/10/09 08:43:08;;;;;;;19.33;5.70;;;18.80;99.90;;;;;;5008088;28;20456;-67
2023/10/09 08:45:39;;;;;;;27.23;6.97;;;18.80;99.90;;;;;;5004286;28;20431;-69
2023/10/09 08:48:06;;;;;;;15.50;6.33;;;18.90;99.90;;;;;;5001029;28;20444;-68
2023/10/09 08:50:34;;;;;;;15.37;5.50;;;18.90;99.90;;;;;;5000717;28;20498;-68
2023/10/09 08:53:01;;;;;;;17.43;6.03;;;19.10;99.90;;;;;;5000381;28;21311;-69
2023/10/09 08:55:26;;;;;;;15.40;6.77;;;19.10;99.90;;;;;;5001281;28;20420;-68
2023/10/09 08:57:52;;;;;;;14.43;5.63;;;19.20;99.90;;;;;;5002161;28;20535;-68
2023/10/09 09:00:23;;;;;;;11.23;4.80;;;19.30;99.90;;;;;;5000435;28;20209;-69
2023/10/09 09:02:52;;;;;;;10.80;5.67;;;19.40;99.90;;;;;;4999713;28;20209;-68
2023/10/09 09:05:20;;;;;;;17.17;6.60;;;19.50;99.90;;;;;;5008106;28;20789;-68
2023/10/09 09:07:46;;;;;;;19.73;5.80;;;19.50;99.90;;;;;;5011184;28;20446;-68
2023/10/09 09:10:17;;;;;;;15.97;6.07;;;19.70;99.90;;;;;;5000615;28;20432;-69
2023/10/09 09:12:53;;;;;;;19.20;7.63;;;19.80;99.90;;;;;;5002896;28;20286;-68
2023/10/09 09:15:20;;;;;;;12.43;5.07;;;19.80;99.90;;;;;;5005253;28;21086;-68
2023/10/09 09:17:48;;;;;;;14.87;7.67;;;20.00;99.90;;;;;;5001878;28;20424;-68
2023/10/09 09:20:23;;;;;;;20.77;6.00;;;20.20;99.90;;;;;;5001703;28;20432;-68
2023/10/09 09:22:56;;;;;;;19.73;5.40;;;20.20;99.90;;;;;;4997610;28;20459;-68
2023/10/09 09:25:24;;;;;;;17.00;5.73;;;20.40;99.90;;;;;;5003573;28;20441;-67
2023/10/09 09:27:54;;;;;;;16.57;6.33;;;20.50;99.90;;;;;;5003979;28;20852;-69
2023/10/09 09:30:33;;;;;;;19.97;5.90;;;20.50;99.90;;;;;;5002850;28;20435;-67
2023/10/09 09:33:16;;;;;;;12.63;5.73;;;20.60;99.90;;;;;;4997503;28;20497;-68
2023/10/09 09:35:59;;;;;;;12.77;5.50;;;20.80;99.90;;;;;;5000285;28;20452;-67
2023/10/09 09:38:35;;;;;;;13.50;5.10;;;21.10;99.90;;;;;;5002338;28;20420;-68
2023/10/09 09:41:07;;;;;;;14.13;5.57;;;21.20;99.90;;;;;;5001626;28;20810;-68
2023/10/09 09:43:35;;;;;;;19.53;6.10;;;21.50;99.90;;;;;;5000109;28;20486;-69
2023/10/09 09:46:07;;;;;;;11.20;5.60;;;21.60;99.90;;;;;;5000620;28;20441;-69
2023/10/09 09:48:39;;;;;;;11.83;5.57;;;21.80;99.90;;;;;;5002154;28;20423;-69
2023/10/09 09:51:08;;;;;;;16.67;6.03;;;21.80;99.90;;;;;;4994994;28;20582;-69
2023/10/09 09:53:34;;;;;;;13.20;5.20;;;21.90;99.90;;;;;;5000920;28;20551;-69
2023/10/09 09:56:03;;;;;;;18.97;6.70;;;21.90;99.90;;;;;;5004424;28;20460;-68
2023/10/09 09:58:44;;;;;;;12.40;5.87;;;22.00;99.90;;;;;;5006215;28;20423;-68
2023/10/09 10:01:16;;;;;;;9.60;4.33;;;22.10;99.90;;;;;;4993543;28;20432;-68
2023/10/09 10:03:47;;;;;;;21.80;5.77;;;22.20;99.90;;;;;;5001691;28;20500;-69
2023/10/09 10:06:14;;;;;;;19.17;5.43;;;22.30;99.90;;;;;;4996381;28;20458;-68
2023/10/09 10:08:43;;;;;;;17.93;5.40;;;22.30;99.90;;;;;;5000118;28;20463;-68
2023/10/09 10:11:42;;;;;;;19.93;6.00;;;22.40;99.90;;;;;;5003187;28;20464;-69
2023/10/09 10:14:11;;;;;;;12.27;4.80;;;22.40;99.90;;;;;;5017443;28;20490;-69
2023/10/09 10:17:02;;;;;;;20.83;5.77;;;22.30;99.90;;;;;;4994942;28;20439;-69
2023/10/09 10:22:47;;;;;;;18.87;5.70;;;22.20;99.90;;;;;;5002964;28;20963;-69
2023/10/09 10:25:32;;;;;;;13.93;5.30;;;22.30;99.90;;;;;;4999246;28;20440;-69
2023/10/09 10:28:38;;;;;;;10.77;5.03;;;22.40;99.90;;;;;;4996945;28;20437;-68
2023/10/09 10:31:09;;;;;;;18.63;6.87;;;22.50;99.90;;;;;;5001114;28;20464;-69
2023/10/09 10:33:56;;;;;;;15.50;4.70;;;22.80;99.90;;;;;;5001143;28;20913;-69
2023/10/09 10:36:26;;;;;;;18.63;6.60;;;23.10;99.90;;;;;;4990999;28;20408;-68
2023/10/09 10:39:10;;;;;;;13.73;5.77;;;23.40;99.90;;;;;;4999693;28;20439;-69
2023/10/09 10:41:51;;;;;;;12.20;5.47;;;23.60;99.90;;;;;;5002725;28;20570;-69
2023/10/09 10:44:36;;;;;;;12.57;5.07;;;23.70;99.90;;;;;;4998030;28;20797;-69
2023/10/09 10:47:03;;;;;;;17.00;6.27;;;23.60;99.90;;;;;;4995288;28;20701;-69
2023/10/09 10:49:36;;;;;;;14.73;5.17;;;23.60;99.90;;;;;;4997157;28;20993;-69
2023/10/09 10:52:17;;;;;;;11.90;5.33;;;23.60;99.90;;;;;;4994723;28;21024;-71
2023/10/09 10:57:53;;;;;;;20.67;7.10;;;23.40;99.90;;;;;;4991924;28;21029;-68
2023/10/09 11:03:13;;;;;;;13.37;4.97;;;23.30;99.90;;;;;;4992113;28;20676;-69
2023/10/09 11:05:41;;;;;;;18.37;5.60;;;23.20;99.90;;;;;;4994135;28;20447;-68
2023/10/09 11:08:10;;;;;;;15.87;5.83;;;23.20;99.90;;;;;;4991318;28;20460;-68
2023/10/09 11:10:35;;;;;;;17.43;5.20;;;23.20;99.90;;;;;;4999545;28;20463;-69
2023/10/09 11:15:44;;;;;;;13.37;4.57;;;23.10;99.90;;;;;;4994866;28;20771;-69
2023/10/09 11:18:26;;;;;;;12.77;5.60;;;23.10;99.90;;;;;;4994297;28;20428;-69
2023/10/09 11:23:36;;;;;;;16.30;5.03;;;23.10;99.90;;;;;;4997981;28;21022;-69
2023/10/09 11:26:53;;;;;;;11.90;4.90;;;23.10;99.90;;;;;;4997917;28;20436;-68
2023/10/09 11:32:01;;;;;;;18.97;5.80;;;23.40;99.90;;;;;;4997592;28;20471;-69
2023/10/09 11:34:37;;;;;;;16.03;5.23;;;23.40;99.90;;;;;;4995060;28;20435;-70
2023/10/09 11:37:10;;;;;;;16.00;7.00;;;23.60;99.90;;;;;;4995769;28;20979;-69
2023/10/09 11:39:36;;;;;;;13.70;4.70;;;23.70;99.90;;;;;;4989767;28;20443;-69
2023/10/09 11:42:07;;;;;;;12.83;6.30;;;23.70;99.90;;;;;;5011437;28;20573;-69
2023/10/09 11:44:41;;;;;;;12.97;5.53;;;23.90;99.90;;;;;;5000613;28;20455;-69
2023/10/09 11:52:46;;;;;;;13.47;5.10;;;26.60;99.90;;;;;;4993569;28;21308;-70
2023/10/09 11:55:14;;;;;;;13.27;4.50;;;27.70;98.40;;;;;;4992224;28;20527;-69
2023/10/09 11:57:41;;;;;;;14.73;6.03;;;27.90;95.30;;;;;;4996990;28;20560;-69
2023/10/09 12:00:29;;;;;;;16.17;5.87;;;28.40;94.70;;;;;;4995692;28;20436;-69
2023/10/09 12:02:55;;;;;;;10.83;5.80;;;29.50;92.70;;;;;;4995546;28;21158;-70
2023/10/09 12:05:22;;;;;;;14.00;6.13;;;30.80;86.50;;;;;;4992315;28;20517;-70
2023/10/09 12:07:56;;;;;;;12.20;5.60;;;31.50;80.50;;;;;;5003412;28;20994;-70
2023/10/09 12:10:25;;;;;;;20.80;6.23;;;32.20;78.30;;;;;;5000633;28;21166;-70
2023/10/09 12:12:57;;;;;;;14.73;6.27;;;32.40;71.10;;;;;;4995697;28;20680;-70
2023/10/09 12:15:23;;;;;;;15.03;5.40;;;33.00;68.90;;;;;;4992313;28;22242;-69
2023/10/09 12:17:49;;;;;;;17.43;5.37;;;34.10;65.20;;;;;;5000551;28;20515;-70
2023/10/09 12:20:31;;;;;;;16.67;5.00;;;34.30;60.10;;;;;;4996041;28;20401;-70
2023/10/09 12:23:01;;;;;;;19.80;5.60;;;34.10;60.20;;;;;;4992534;28;20205;-70
2023/10/09 12:25:31;;;;;;;14.03;6.00;;;33.40;59.10;;;;;;5016441;28;20432;-70
2023/10/09 12:27:57;;;;;;;12.10;5.23;;;33.60;59.20;;;;;;4991581;28;20544;-68
2023/10/09 12:30:26;;;;;;;14.30;5.17;;;33.70;57.60;;;;;;4997513;28;20406;-68
2023/10/09 12:32:57;;;;;;;15.30;5.30;;;34.50;57.40;;;;;;5001894;28;20995;-68
2023/10/09 12:35:26;;;;;;;11.57;5.20;;;35.00;55.30;;;;;;4997034;28;20492;-68
2023/10/09 12:37:55;;;;;;;10.40;5.50;;;34.60;55.50;;;;;;4996236;28;20475;-68
2023/10/09 12:40:30;;;;;;;13.00;4.93;;;33.90;54.90;;;;;;5001495;28;20436;-68
2023/10/09 12:42:58;;;;;;;10.47;5.60;;;32.50;56.10;;;;;;5000748;28;20417;-68
2023/10/09 12:45:32;;;;;;;16.30;5.33;;;32.40;57.10;;;;;;4994573;28;21056;-68
2023/10/09 12:47:59;;;;;;;13.23;5.20;;;32.40;56.70;;;;;;5017986;28;20425;-68
2023/10/09 12:50:28;;;;;;;15.73;5.07;;;32.30;57.20;;;;;;4994341;28;20394;-68
2023/10/09 12:53:01;;;;;;;10.73;5.80;;;32.40;57.80;;;;;;4994832;28;20426;-68
2023/10/09 12:55:31;;;;;;;16.30;6.23;;;33.30;57.10;;;;;;5000069;28;20458;-68
2023/10/09 12:58:06;;;;;;;16.73;4.90;;;33.20;56.20;;;;;;5000209;28;20399;-68
2023/10/09 13:00:32;;;;;;;19.47;6.13;;;32.70;56.20;;;;;;4996083;28;20435;-67
2023/10/09 13:03:01;;;;;;;12.10;6.30;;;32.20;56.50;;;;;;4998911;28;20546;-67
2023/10/09 13:05:27;;;;;;;16.40;7.30;;;32.00;57.10;;;;;;4998044;28;20848;-69
2023/10/09 13:07:55;;;;;;;13.40;5.10;;;31.90;56.90;;;;;;4999562;28;20491;-68
2023/10/09 13:10:23;;;;;;;13.00;6.87;;;32.10;57.00;;;;;;5004618;28;21025;-69
2023/10/09 13:12:55;;;;;;;15.50;5.60;;;31.90;58.00;;;;;;4996320;28;20436;-68
2023/10/09 13:15:21;;;;;;;13.03;6.33;;;32.10;58.20;;;;;;4997479;28;20932;-69
2023/10/09 13:17:47;;;;;;;22.27;7.60;;;32.10;58.40;;;;;;4993570;28;20412;-68
2023/10/09 13:20:13;;;;;;;13.77;5.00;;;32.10;57.90;;;;;;4998736;28;20425;-69
2023/10/09 13:22:42;;;;;;;18.30;6.27;;;32.00;56.20;;;;;;4994812;28;20436;-69
2023/10/09 13:25:15;;;;;;;15.47;5.87;;;31.60;56.70;;;;;;5000995;28;20727;-69
2023/10/09 13:27:42;;;;;;;13.10;6.20;;;31.20;57.40;;;;;;5001479;28;20437;-70
2023/10/09 13:30:09;;;;;;;12.20;5.60;;;31.40;57.60;;;;;;4996658;28;20819;-69
2023/10/09 13:32:35;;;;;;;14.70;6.10;;;31.30;57.10;;;;;;4991510;28;20475;-69
2023/10/09 13:35:05;;;;;;;13.97;5.47;;;30.60;57.70;;;;;;4990954;28;20815;-68
2023/10/09 13:37:36;;;;;;;20.20;6.57;;;30.30;58.20;;;;;;4988057;28;20433;-68
2023/10/09 13:40:11;;;;;;;21.77;6.17;;;30.30;58.70;;;;;;4991628;28;20444;-69
2023/10/09 13:42:37;;;;;;;20.47;6.43;;;30.30;58.70;;;;;;4999351;28;20459;-67
2023/10/09 13:45:15;;;;;;;17.70;6.60;;;30.40;58.60;;;;;;4996301;28;20418;-68
2023/10/09 13:47:44;;;;;;;11.70;5.47;;;30.00;59.00;;;;;;4993886;28;20536;-68
2023/10/09 13:50:10;;;;;;;11.20;5.43;;;29.70;59.60;;;;;;4997873;28;20939;-68
2023/10/09 13:52:39;;;;;;;16.07;5.70;;;29.30;60.00;;;;;;5001490;28;20489;-68
2023/10/09 13:55:17;;;;;;;14.00;5.63;;;28.80;61.70;;;;;;4997121;28;20180;-69
2023/10/09 13:57:45;;;;;;;18.20;5.70;;;28.60;62.80;;;;;;5008868;28;20437;-69
2023/10/09 14:00:32;;;;;;;13.57;6.27;;;28.50;63.40;;;;;;4989717;28;20429;-67
2023/10/09 14:03:01;;;;;;;20.03;6.10;;;28.60;64.10;;;;;;4990578;28;20899;-68
2023/10/09 14:05:27;;;;;;;11.97;5.80;;;28.80;64.30;;;;;;4989157;28;20444;-68
2023/10/09 14:07:57;;;;;;;20.03;6.53;;;28.60;64.50;;;;;;4992623;28;20456;-68
2023/10/09 14:10:26;;;;;;;14.23;6.40;;;28.50;65.40;;;;;;4994855;28;21123;-68
2023/10/09 14:12:54;;;;;;;11.00;6.70;;;28.30;66.20;;;;;;4997024;28;20452;-68
2023/10/09 14:15:20;;;;;;;14.80;6.83;;;28.10;66.10;;;;;;4992073;28;20406;-69
2023/10/09 14:17:55;;;;;;;12.10;6.07;;;28.20;66.00;;;;;;5000671;28;20462;-68
2023/10/09 14:20:31;;;;;;;19.47;5.87;;;28.10;67.50;;;;;;4994823;28;20431;-67
2023/10/09 14:23:05;;;;;;;16.43;6.53;;;27.90;68.40;;;;;;4995897;28;20471;-68
2023/10/09 14:25:32;;;;;;;16.70;6.53;;;27.80;69.30;;;;;;4999586;28;20798;-68
2023/10/09 14:27:57;;;;;;;14.00;6.20;;;27.70;70.10;;;;;;4998365;28;20524;-68
2023/10/09 14:30:30;;;;;;;17.53;6.10;;;27.70;70.40;;;;;;4997239;28;20562;-68
2023/10/09 14:32:57;;;;;;;17.70;5.60;;;27.70;70.50;;;;;;4991715;28;20263;-68
2023/10/09 14:35:26;;;;;;;13.60;6.53;;;27.50;69.80;;;;;;4992867;28;20494;-68